Airfield :
LOGIN :

Register | Disclaimer

   EN    FR    IT 

 










Legend :    VFR   Marginal VFR   IFR   Intensive IFR   Very Intensive IFR
Visi :
Ceiling :
>= 8 km
>= 3000ft
5 to 8 km
1000 to 3000 ft
1500m to 5 km
500 to 1000 ft
800 to 1500m
200 to 500 ft
< 800m
< 200 ft
Symbols :   Thunderstorms  Fog  Heavy snow  Heavy precipitations  Wind > 20 kt
SIGMETs :     Misc.  Thunderstorms  Icing  Turbulence  Mountain Waves  Volcanic Ashes






- Airport Elevation : 659 ft
- IATA code : LYN


LFLY - Lyon Bron

CURRENT METAR :
  • 051930Z AUTO 36007KT CAVOK 27/15 Q1017 NOSIG

EXPIRED METARs :
  • 051900Z AUTO 36008KT CAVOK 28/15 Q1017 NOSIG
  • 051830Z AUTO 36009KT CAVOK 29/15 Q1017 NOSIG
  • 051800Z AUTO 01009KT 330V030 CAVOK 30/15 Q1017 NOSIG
  • 051730Z AUTO 02008KT CAVOK 30/16 Q1017 NOSIG
  • 051700Z AUTO 01008KT 340V040 CAVOK 30/16 Q1017 NOSIG

TAF TAF LFLY
Valid from the 05 at 18:00 until the 06 at 18:00 UTC


051700Z 0518/0618 36006KT CAVOK
BECMG 0522/0524 VRB02KT
TEMPO 0604/0610 BKN030
PROB30
TEMPO 0606/0608 -RA BKN020
BECMG 0605/0608 34010KT
ATIS : +33 4 72 15 87 96



MET'MAP, your aeronautical weather chart ! - Copyright ORBIFLY December 2007 - Disclaimer

ORBIFLY MET'MAP TEAM :

Programming & Development : Alexandra Zaïnal
Concept & original design : Baudouin d'Aumeries
Assistance for programming : Marc-Olivier Méhu
Technical & hardware support : Manuel Goepfert

Contact : metmap@orbifly.com




SOURCES & CREDITS :

   NOAA